sensor_id;sensor_type;location;lat;lon;timestamp;temperature;humidity
25628;DHT22;40915;50.826;4.356;2022-12-28T13:32:58;10.70;99.90
25628;DHT22;40915;50.826;4.356;2022-12-28T13:35:30;10.70;99.90
25628;DHT22;40915;50.826;4.356;2022-12-28T13:40:35;10.60;99.90
25628;DHT22;40915;50.826;4.356;2022-12-28T13:43:50;10.70;99.90
25628;DHT22;40915;50.826;4.356;2022-12-28T13:46:05;10.70;99.90
25628;DHT22;40915;50.826;4.356;2022-12-28T13:48:39;10.60;99.90
25628;DHT22;40915;50.826;4.356;2022-12-28T13:51:12;10.70;99.90
25628;DHT22;40915;50.826;4.356;2022-12-28T13:53:43;10.60;99.90
25628;DHT22;40915;50.826;4.356;2022-12-28T13:56:12;10.60;99.90
25628;DHT22;40915;50.826;4.356;2022-12-28T13:58:43;10.60;99.90
25628;DHT22;40915;50.826;4.356;2022-12-28T14:01:18;10.60;99.90
25628;DHT22;40915;50.826;4.356;2022-12-28T14:03:45;10.70;99.90
25628;DHT22;40915;50.826;4.356;2022-12-28T14:06:14;10.70;99.90
25628;DHT22;40915;50.826;4.356;2022-12-28T14:08:43;10.60;99.90
25628;DHT22;40915;50.826;4.356;2022-12-28T14:11:10;10.60;99.90
25628;DHT22;40915;50.826;4.356;2022-12-28T14:13:37;10.50;99.90
25628;DHT22;40915;50.826;4.356;2022-12-28T14:16:05;10.60;99.90
25628;DHT22;40915;50.826;4.356;2022-12-28T14:18:33;10.60;99.90
25628;DHT22;40915;50.826;4.356;2022-12-28T14:20:59;10.60;99.90
25628;DHT22;40915;50.826;4.356;2022-12-28T14:23:31;10.60;99.90
25628;DHT22;40915;50.826;4.356;2022-12-28T14:26:00;10.60;99.90
25628;DHT22;40915;50.826;4.356;2022-12-28T14:28:31;10.60;99.90
25628;DHT22;40915;50.826;4.356;2022-12-28T14:31:00;10.60;99.90
25628;DHT22;40915;50.826;4.356;2022-12-28T14:33:29;10.50;99.90
25628;DHT22;40915;50.826;4.356;2022-12-28T14:36:01;10.50;99.90
25628;DHT22;40915;50.826;4.356;2022-12-28T14:38:37;10.50;99.90
25628;DHT22;40915;50.826;4.356;2022-12-28T14:41:04;10.40;99.90
25628;DHT22;40915;50.826;4.356;2022-12-28T14:43:33;10.40;99.90
25628;DHT22;40915;50.826;4.356;2022-12-28T14:46:17;10.50;99.90
25628;DHT22;40915;50.826;4.356;2022-12-28T14:48:52;10.40;99.90
25628;DHT22;40915;50.826;4.356;2022-12-28T14:51:30;10.40;99.90
25628;DHT22;40915;50.826;4.356;2022-12-28T14:54:15;10.40;99.90
25628;DHT22;40915;50.826;4.356;2022-12-28T14:56:42;10.50;99.90
25628;DHT22;40915;50.826;4.356;2022-12-28T14:59:23;10.30;99.90
25628;DHT22;40915;50.826;4.356;2022-12-28T15:01:50;10.30;99.90
25628;DHT22;40915;50.826;4.356;2022-12-28T15:04:36;10.30;99.90
25628;DHT22;40915;50.826;4.356;2022-12-28T15:07:03;10.30;99.90
25628;DHT22;40915;50.826;4.356;2022-12-28T15:09:29;10.40;99.90
25628;DHT22;40915;50.826;4.356;2022-12-28T15:12:15;10.30;99.90
25628;DHT22;40915;50.826;4.356;2022-12-28T15:14:42;10.30;99.90
25628;DHT22;40915;50.826;4.356;2022-12-28T15:17:08;10.30;99.90
25628;DHT22;40915;50.826;4.356;2022-12-28T15:19:34;10.30;99.90
25628;DHT22;40915;50.826;4.356;2022-12-28T15:21:59;10.20;99.90
25628;DHT22;40915;50.826;4.356;2022-12-28T15:24:25;10.20;99.90
25628;DHT22;40915;50.826;4.356;2022-12-28T15:26:51;10.20;99.90
25628;DHT22;40915;50.826;4.356;2022-12-28T15:29:17;10.20;99.90
25628;DHT22;40915;50.826;4.356;2022-12-28T15:31:43;10.20;99.90
25628;DHT22;40915;50.826;4.356;2022-12-28T15:34:08;10.20;99.90
25628;DHT22;40915;50.826;4.356;2022-12-28T15:36:34;10.10;99.90
25628;DHT22;40915;50.826;4.356;2022-12-28T15:39:00;10.00;99.90
25628;DHT22;40915;50.826;4.356;2022-12-28T15:41:26;10.10;99.90
25628;DHT22;40915;50.826;4.356;2022-12-28T15:44:11;10.00;99.90
25628;DHT22;40915;50.826;4.356;2022-12-28T15:46:36;10.00;99.90
25628;DHT22;40915;50.826;4.356;2022-12-28T15:49:06;9.90;99.90
25628;DHT22;40915;50.826;4.356;2022-12-28T15:51:32;9.90;99.90
25628;DHT22;40915;50.826;4.356;2022-12-28T15:53:58;9.80;99.90
25628;DHT22;40915;50.826;4.356;2022-12-28T15:56:26;9.80;99.90
25628;DHT22;40915;50.826;4.356;2022-12-28T15:58:53;9.80;99.90
25628;DHT22;40915;50.826;4.356;2022-12-28T16:01:19;9.80;99.90
25628;DHT22;40915;50.826;4.356;2022-12-28T16:03:48;9.80;99.90
25628;DHT22;40915;50.826;4.356;2022-12-28T16:06:13;9.80;99.90
25628;DHT22;40915;50.826;4.356;2022-12-28T16:08:39;9.70;99.90
25628;DHT22;40915;50.826;4.356;2022-12-28T16:11:12;9.80;99.90
25628;DHT22;40915;50.826;4.356;2022-12-28T16:13:38;9.90;99.90
25628;DHT22;40915;50.826;4.356;2022-12-28T16:16:09;9.90;99.90
25628;DHT22;40915;50.826;4.356;2022-12-28T16:18:35;9.90;99.90
25628;DHT22;40915;50.826;4.356;2022-12-28T16:21:06;9.80;99.90
25628;DHT22;40915;50.826;4.356;2022-12-28T16:23:34;9.90;99.90
25628;DHT22;40915;50.826;4.356;2022-12-28T16:26:00;10.00;99.90
25628;DHT22;40915;50.826;4.356;2022-12-28T16:28:27;9.90;99.90
25628;DHT22;40915;50.826;4.356;2022-12-28T16:30:53;9.80;99.90
25628;DHT22;40915;50.826;4.356;2022-12-28T16:33:18;9.80;99.90
25628;DHT22;40915;50.826;4.356;2022-12-28T16:35:44;9.80;99.90
25628;DHT22;40915;50.826;4.356;2022-12-28T16:38:15;9.80;99.90
25628;DHT22;40915;50.826;4.356;2022-12-28T16:40:41;9.80;99.90
25628;DHT22;40915;50.826;4.356;2022-12-28T16:43:07;9.70;99.90
25628;DHT22;40915;50.826;4.356;2022-12-28T16:45:38;9.70;99.90
25628;DHT22;40915;50.826;4.356;2022-12-28T16:48:05;9.80;99.90
25628;DHT22;40915;50.826;4.356;2022-12-28T16:50:32;9.80;99.90
25628;DHT22;40915;50.826;4.356;2022-12-28T16:52:57;9.80;99.90
25628;DHT22;40915;50.826;4.356;2022-12-28T16:55:31;9.80;99.90
25628;DHT22;40915;50.826;4.356;2022-12-28T16:57:57;9.70;99.90
25628;DHT22;40915;50.826;4.356;2022-12-28T17:00:23;9.80;99.90
25628;DHT22;40915;50.826;4.356;2022-12-28T17:02:49;9.80;99.90
25628;DHT22;40915;50.826;4.356;2022-12-28T17:05:15;9.80;99.90
25628;DHT22;40915;50.826;4.356;2022-12-28T17:07:40;9.80;99.90
25628;DHT22;40915;50.826;4.356;2022-12-28T17:10:07;9.70;99.90
25628;DHT22;40915;50.826;4.356;2022-12-28T17:12:32;9.70;99.90
25628;DHT22;40915;50.826;4.356;2022-12-28T17:14:58;9.70;99.90
25628;DHT22;40915;50.826;4.356;2022-12-28T17:17:23;9.70;99.90
25628;DHT22;40915;50.826;4.356;2022-12-28T17:19:49;9.70;99.90
25628;DHT22;40915;50.826;4.356;2022-12-28T17:22:15;9.70;99.90
25628;DHT22;40915;50.826;4.356;2022-12-28T17:24:41;9.80;99.90
25628;DHT22;40915;50.826;4.356;2022-12-28T17:27:06;9.80;99.90
25628;DHT22;40915;50.826;4.356;2022-12-28T17:29:32;9.80;99.90
25628;DHT22;40915;50.826;4.356;2022-12-28T17:31:57;9.80;99.90
25628;DHT22;40915;50.826;4.356;2022-12-28T17:34:23;9.80;99.90
25628;DHT22;40915;50.826;4.356;2022-12-28T17:36:49;9.80;99.90
25628;DHT22;40915;50.826;4.356;2022-12-28T17:39:14;9.80;99.90
25628;DHT22;40915;50.826;4.356;2022-12-28T17:41:42;9.80;99.90
25628;DHT22;40915;50.826;4.356;2022-12-28T17:44:09;9.80;99.90
25628;DHT22;40915;50.826;4.356;2022-12-28T17:46:34;9.80;99.90
25628;DHT22;40915;50.826;4.356;2022-12-28T17:49:12;9.70;99.90
25628;DHT22;40915;50.826;4.356;2022-12-28T17:51:38;9.70;99.90
25628;DHT22;40915;50.826;4.356;2022-12-28T17:54:12;9.80;99.90
25628;DHT22;40915;50.826;4.356;2022-12-28T17:56:38;9.80;99.90
25628;DHT22;40915;50.826;4.356;2022-12-28T17:59:04;9.90;99.90
25628;DHT22;40915;50.826;4.356;2022-12-28T18:01:30;9.80;99.90
25628;DHT22;40915;50.826;4.356;2022-12-28T18:03:56;9.80;99.90
25628;DHT22;40915;50.826;4.356;2022-12-28T18:06:24;9.90;99.90
25628;DHT22;40915;50.826;4.356;2022-12-28T18:08:49;9.90;99.90
25628;DHT22;40915;50.826;4.356;2022-12-28T18:11:15;10.00;99.90
25628;DHT22;40915;50.826;4.356;2022-12-28T18:13:42;10.00;99.90
25628;DHT22;40915;50.826;4.356;2022-12-28T18:16:12;10.00;99.90
25628;DHT22;40915;50.826;4.356;2022-12-28T18:18:38;10.00;99.90
25628;DHT22;40915;50.826;4.356;2022-12-28T18:21:06;10.10;99.90
25628;DHT22;40915;50.826;4.356;2022-12-28T18:23:33;10.00;99.90
25628;DHT22;40915;50.826;4.356;2022-12-28T18:26:03;10.00;99.90
25628;DHT22;40915;50.826;4.356;2022-12-28T18:28:29;10.00;99.90
25628;DHT22;40915;50.826;4.356;2022-12-28T18:30:55;10.10;99.90
25628;DHT22;40915;50.826;4.356;2022-12-28T18:33:20;10.10;99.90
25628;DHT22;40915;50.826;4.356;2022-12-28T18:35:46;10.10;99.90
25628;DHT22;40915;50.826;4.356;2022-12-28T18:38:11;10.20;99.90
25628;DHT22;40915;50.826;4.356;2022-12-28T18:40:37;10.30;99.90
25628;DHT22;40915;50.826;4.356;2022-12-28T18:43:04;10.30;99.90
25628;DHT22;40915;50.826;4.356;2022-12-28T18:45:29;10.30;99.90
25628;DHT22;40915;50.826;4.356;2022-12-28T18:47:55;10.30;99.90
25628;DHT22;40915;50.826;4.356;2022-12-28T18:50:21;10.30;99.90
25628;DHT22;40915;50.826;4.356;2022-12-28T18:52:46;10.30;99.90
25628;DHT22;40915;50.826;4.356;2022-12-28T18:55:14;10.30;99.90
25628;DHT22;40915;50.826;4.356;2022-12-28T18:57:39;10.30;99.90
25628;DHT22;40915;50.826;4.356;2022-12-28T19:00:06;10.40;99.90
25628;DHT22;40915;50.826;4.356;2022-12-28T19:02:32;10.40;99.90
25628;DHT22;40915;50.826;4.356;2022-12-28T19:04:58;10.50;99.90
25628;DHT22;40915;50.826;4.356;2022-12-28T19:07:24;10.60;99.90
25628;DHT22;40915;50.826;4.356;2022-12-28T19:09:50;10.50;99.90
25628;DHT22;40915;50.826;4.356;2022-12-28T19:12:34;10.60;99.90
25628;DHT22;40915;50.826;4.356;2022-12-28T19:14:59;10.60;99.90
25628;DHT22;40915;50.826;4.356;2022-12-28T19:17:25;10.60;99.90
25628;DHT22;40915;50.826;4.356;2022-12-28T19:19:51;10.60;99.90
25628;DHT22;40915;50.826;4.356;2022-12-28T19:22:16;10.60;99.90
25628;DHT22;40915;50.826;4.356;2022-12-28T19:24:42;10.50;99.90
25628;DHT22;40915;50.826;4.356;2022-12-28T19:27:07;10.60;99.90
25628;DHT22;40915;50.826;4.356;2022-12-28T19:29:33;10.60;99.90
25628;DHT22;40915;50.826;4.356;2022-12-28T19:31:58;10.50;99.90
25628;DHT22;40915;50.826;4.356;2022-12-28T19:34:24;10.50;99.90
25628;DHT22;40915;50.826;4.356;2022-12-28T19:36:50;10.50;99.90
25628;DHT22;40915;50.826;4.356;2022-12-28T19:39:15;10.60;99.90
25628;DHT22;40915;50.826;4.356;2022-12-28T19:41:41;10.60;99.90
25628;DHT22;40915;50.826;4.356;2022-12-28T19:44:06;10.70;99.90
25628;DHT22;40915;50.826;4.356;2022-12-28T19:46:32;10.70;99.90
25628;DHT22;40915;50.826;4.356;2022-12-28T19:48:59;10.70;99.90
25628;DHT22;40915;50.826;4.356;2022-12-28T19:51:25;10.70;99.90
25628;DHT22;40915;50.826;4.356;2022-12-28T19:53:52;10.90;99.90
25628;DHT22;40915;50.826;4.356;2022-12-28T19:56:19;10.90;99.90
25628;DHT22;40915;50.826;4.356;2022-12-28T19:58:45;10.90;99.90
25628;DHT22;40915;50.826;4.356;2022-12-28T20:03:37;11.00;99.90
25628;DHT22;40915;50.826;4.356;2022-12-28T20:06:05;11.00;99.90
25628;DHT22;40915;50.826;4.356;2022-12-28T20:08:30;10.90;99.90
25628;DHT22;40915;50.826;4.356;2022-12-28T20:10:56;10.90;99.90
25628;DHT22;40915;50.826;4.356;2022-12-28T20:13:22;10.90;99.90
25628;DHT22;40915;50.826;4.356;2022-12-28T20:15:47;10.90;99.90
25628;DHT22;40915;50.826;4.356;2022-12-28T20:18:13;11.00;99.90
25628;DHT22;40915;50.826;4.356;2022-12-28T20:20:38;11.10;99.90
25628;DHT22;40915;50.826;4.356;2022-12-28T20:23:04;11.10;99.90
25628;DHT22;40915;50.826;4.356;2022-12-28T20:25:29;11.10;99.90
25628;DHT22;40915;50.826;4.356;2022-12-28T20:27:55;11.10;99.90
25628;DHT22;40915;50.826;4.356;2022-12-28T20:30:21;11.10;99.90
25628;DHT22;40915;50.826;4.356;2022-12-28T20:32:46;11.10;99.90
25628;DHT22;40915;50.826;4.356;2022-12-28T20:35:12;11.20;99.90
25628;DHT22;40915;50.826;4.356;2022-12-28T20:37:37;11.20;99.90
25628;DHT22;40915;50.826;4.356;2022-12-28T20:40:03;11.30;99.90
25628;DHT22;40915;50.826;4.356;2022-12-28T20:42:30;11.30;99.90
25628;DHT22;40915;50.826;4.356;2022-12-28T20:45:14;11.40;99.90
25628;DHT22;40915;50.826;4.356;2022-12-28T20:47:40;11.30;99.90
25628;DHT22;40915;50.826;4.356;2022-12-28T20:50:05;11.30;99.90
25628;DHT22;40915;50.826;4.356;2022-12-28T20:52:31;11.30;99.90
25628;DHT22;40915;50.826;4.356;2022-12-28T20:54:57;11.20;99.90
25628;DHT22;40915;50.826;4.356;2022-12-28T20:57:22;11.10;99.90
25628;DHT22;40915;50.826;4.356;2022-12-28T20:59:48;11.20;99.90
25628;DHT22;40915;50.826;4.356;2022-12-28T21:02:13;11.20;99.90
25628;DHT22;40915;50.826;4.356;2022-12-28T21:04:39;11.40;99.90
25628;DHT22;40915;50.826;4.356;2022-12-28T21:07:04;11.30;99.90
25628;DHT22;40915;50.826;4.356;2022-12-28T21:09:30;11.20;99.90
25628;DHT22;40915;50.826;4.356;2022-12-28T21:11:56;11.30;99.90
25628;DHT22;40915;50.826;4.356;2022-12-28T21:14:21;11.30;99.90
25628;DHT22;40915;50.826;4.356;2022-12-28T21:16:47;11.30;99.90
25628;DHT22;40915;50.826;4.356;2022-12-28T21:19:12;11.40;99.90
25628;DHT22;40915;50.826;4.356;2022-12-28T21:21:38;11.40;99.90
25628;DHT22;40915;50.826;4.356;2022-12-28T21:24:04;11.40;99.90
25628;DHT22;40915;50.826;4.356;2022-12-28T21:26:30;11.30;99.90
25628;DHT22;40915;50.826;4.356;2022-12-28T21:28:56;11.40;99.90
25628;DHT22;40915;50.826;4.356;2022-12-28T21:31:21;11.50;99.90
25628;DHT22;40915;50.826;4.356;2022-12-28T21:33:47;11.50;99.90
25628;DHT22;40915;50.826;4.356;2022-12-28T21:36:14;11.40;99.90
25628;DHT22;40915;50.826;4.356;2022-12-28T21:38:41;11.50;99.90
25628;DHT22;40915;50.826;4.356;2022-12-28T21:41:19;11.50;99.90
25628;DHT22;40915;50.826;4.356;2022-12-28T21:44:10;11.50;99.90
25628;DHT22;40915;50.826;4.356;2022-12-28T21:46:36;11.60;99.90
25628;DHT22;40915;50.826;4.356;2022-12-28T21:49:02;11.50;99.90
25628;DHT22;40915;50.826;4.356;2022-12-28T21:51:28;11.40;99.90
25628;DHT22;40915;50.826;4.356;2022-12-28T21:54:05;11.40;99.90
25628;DHT22;40915;50.826;4.356;2022-12-28T21:56:32;11.40;99.90
25628;DHT22;40915;50.826;4.356;2022-12-28T21:59:00;11.40;99.90
25628;DHT22;40915;50.826;4.356;2022-12-28T22:01:26;11.40;99.90
25628;DHT22;40915;50.826;4.356;2022-12-28T22:04:16;11.40;99.90
25628;DHT22;40915;50.826;4.356;2022-12-28T22:07:01;11.40;99.90
25628;DHT22;40915;50.826;4.356;2022-12-28T22:09:27;11.40;99.90
25628;DHT22;40915;50.826;4.356;2022-12-28T22:12:12;11.40;99.90
25628;DHT22;40915;50.826;4.356;2022-12-28T22:14:56;11.50;99.90
25628;DHT22;40915;50.826;4.356;2022-12-28T22:17:41;11.50;99.90
25628;DHT22;40915;50.826;4.356;2022-12-28T22:20:09;11.50;99.90
25628;DHT22;40915;50.826;4.356;2022-12-28T22:22:35;11.50;99.90
25628;DHT22;40915;50.826;4.356;2022-12-28T22:25:01;11.50;99.90
25628;DHT22;40915;50.826;4.356;2022-12-28T22:27:26;11.40;99.90
25628;DHT22;40915;50.826;4.356;2022-12-28T22:29:52;11.40;99.90
25628;DHT22;40915;50.826;4.356;2022-12-28T22:32:17;11.40;99.90
25628;DHT22;40915;50.826;4.356;2022-12-28T22:34:44;11.40;99.90
25628;DHT22;40915;50.826;4.356;2022-12-28T22:37:10;11.30;99.90
25628;DHT22;40915;50.826;4.356;2022-12-28T22:39:38;11.20;99.90
25628;DHT22;40915;50.826;4.356;2022-12-28T22:42:04;11.10;99.90
25628;DHT22;40915;50.826;4.356;2022-12-28T22:44:31;11.10;99.90
25628;DHT22;40915;50.826;4.356;2022-12-28T22:46:57;10.90;99.90
25628;DHT22;40915;50.826;4.356;2022-12-28T22:49:22;10.90;99.90
25628;DHT22;40915;50.826;4.356;2022-12-28T22:51:48;10.90;99.90
25628;DHT22;40915;50.826;4.356;2022-12-28T22:54:13;10.80;99.90
25628;DHT22;40915;50.826;4.356;2022-12-28T22:56:39;10.80;99.90
25628;DHT22;40915;50.826;4.356;2022-12-28T22:59:04;10.90;99.90
25628;DHT22;40915;50.826;4.356;2022-12-28T23:01:30;11.00;99.90
25628;DHT22;40915;50.826;4.356;2022-12-28T23:03:55;11.00;99.90
25628;DHT22;40915;50.826;4.356;2022-12-28T23:06:21;11.00;99.90
25628;DHT22;40915;50.826;4.356;2022-12-28T23:08:47;11.00;99.90
25628;DHT22;40915;50.826;4.356;2022-12-28T23:11:16;11.10;99.90
25628;DHT22;40915;50.826;4.356;2022-12-28T23:14:03;11.10;99.90
25628;DHT22;40915;50.826;4.356;2022-12-28T23:16:48;11.10;99.90
25628;DHT22;40915;50.826;4.356;2022-12-28T23:19:14;11.20;99.90
25628;DHT22;40915;50.826;4.356;2022-12-28T23:22:01;11.20;99.90
25628;DHT22;40915;50.826;4.356;2022-12-28T23:24:46;11.30;99.90
25628;DHT22;40915;50.826;4.356;2022-12-28T23:27:39;11.30;99.90
25628;DHT22;40915;50.826;4.356;2022-12-28T23:30:08;11.20;99.90
25628;DHT22;40915;50.826;4.356;2022-12-28T23:32:34;11.30;99.90
25628;DHT22;40915;50.826;4.356;2022-12-28T23:34:59;11.40;99.90
25628;DHT22;40915;50.826;4.356;2022-12-28T23:37:26;11.40;99.90
25628;DHT22;40915;50.826;4.356;2022-12-28T23:39:52;11.40;99.90
25628;DHT22;40915;50.826;4.356;2022-12-28T23:42:17;11.40;99.90
25628;DHT22;40915;50.826;4.356;2022-12-28T23:44:43;11.40;99.90
25628;DHT22;40915;50.826;4.356;2022-12-28T23:47:15;11.40;99.90
25628;DHT22;40915;50.826;4.356;2022-12-28T23:49:40;11.30;99.90
25628;DHT22;40915;50.826;4.356;2022-12-28T23:52:06;11.40;99.90
25628;DHT22;40915;50.826;4.356;2022-12-28T23:54:32;11.40;99.90
25628;DHT22;40915;50.826;4.356;2022-12-28T23:56:57;11.40;99.90
25628;DHT22;40915;50.826;4.356;2022-12-28T23:59:24;11.40;99.90
